createdAt,value
2023-03-07T00:00:08.413Z,-1.41
2023-03-07T00:02:56.592Z,-1.48
2023-03-07T00:05:24.666Z,-1.51
2023-03-07T00:07:52.740Z,-1.55
2023-03-07T00:10:20.754Z,-1.57
2023-03-07T00:12:48.847Z,-1.60
2023-03-07T00:15:17.611Z,-1.60
2023-03-07T00:17:45.792Z,-1.62
2023-03-07T00:20:16.616Z,-1.61
2023-03-07T00:22:47.007Z,-1.64
2023-03-07T00:25:16.042Z,-1.65
2023-03-07T00:27:44.017Z,-1.66
2023-03-07T00:30:13.736Z,-1.65
2023-03-07T00:32:41.817Z,-1.63
2023-03-07T00:35:09.951Z,-1.63
2023-03-07T00:37:38.756Z,-1.59
2023-03-07T00:40:08.226Z,-1.60
2023-03-07T00:42:37.033Z,-1.61
2023-03-07T00:45:06.002Z,-1.62
2023-03-07T00:47:34.199Z,-1.62
2023-03-07T00:50:02.474Z,-1.60
2023-03-07T00:52:30.538Z,-1.59
2023-03-07T00:54:59.024Z,-1.59
2023-03-07T00:57:27.031Z,-1.57
2023-03-07T00:59:55.063Z,-1.54
2023-03-07T01:02:23.131Z,-1.52
2023-03-07T01:04:51.718Z,-1.51
2023-03-07T01:07:19.783Z,-1.50
2023-03-07T01:09:51.621Z,-1.49
2023-03-07T01:12:19.920Z,-1.51
2023-03-07T01:14:51.153Z,-1.53
2023-03-07T01:17:19.262Z,-1.55
2023-03-07T01:19:47.354Z,-1.55
2023-03-07T01:22:15.688Z,-1.57
2023-03-07T01:24:43.753Z,-1.61
2023-03-07T01:27:12.027Z,-1.63
2023-03-07T01:29:40.409Z,-1.67
2023-03-07T01:32:09.036Z,-1.69
2023-03-07T01:34:37.370Z,-1.71
2023-03-07T01:37:05.438Z,-1.70
2023-03-07T01:39:33.723Z,-1.70
2023-03-07T01:42:06.096Z,-1.73
2023-03-07T01:44:59.360Z,-1.73
2023-03-07T01:47:30.794Z,-1.76
2023-03-07T01:50:03.110Z,-1.75
2023-03-07T01:52:37.839Z,-1.75
2023-03-07T01:55:14.665Z,-1.75
2023-03-07T01:57:46.603Z,-1.75
2023-03-07T02:00:25.547Z,-1.73
2023-03-07T02:03:12.162Z,-1.70
2023-03-07T02:05:53.114Z,-1.69
2023-03-07T02:08:24.575Z,-1.69
2023-03-07T02:10:53.566Z,-1.67
2023-03-07T02:13:22.220Z,-1.68
2023-03-07T02:15:51.689Z,-1.67
2023-03-07T02:18:25.539Z,-1.69
2023-03-07T02:21:00.081Z,-1.69
2023-03-07T02:23:41.542Z,-1.71
2023-03-07T02:26:21.718Z,-1.72
2023-03-07T02:28:49.994Z,-1.71
2023-03-07T02:31:18.836Z,-1.69
2023-03-07T02:33:47.166Z,-1.69
2023-03-07T02:36:19.536Z,-1.70
2023-03-07T02:39:11.119Z,-1.74
2023-03-07T02:41:40.683Z,-1.73
2023-03-07T02:44:14.611Z,-1.75
2023-03-07T02:46:42.958Z,-1.75
2023-03-07T02:49:11.320Z,-1.77
2023-03-07T02:51:39.605Z,-1.79
2023-03-07T02:54:08.796Z,-1.82
2023-03-07T02:56:37.282Z,-1.82
2023-03-07T02:59:05.348Z,-1.86
2023-03-07T03:01:34.034Z,-1.86
2023-03-07T03:04:02.105Z,-1.84
2023-03-07T03:06:30.170Z,-1.82
2023-03-07T03:08:58.665Z,-1.80
2023-03-07T03:11:27.953Z,-1.76
2023-03-07T03:13:56.396Z,-1.74
2023-03-07T03:16:24.444Z,-1.74
2023-03-07T03:18:52.470Z,-1.71
2023-03-07T03:21:20.650Z,-1.69
2023-03-07T03:23:48.645Z,-1.68
2023-03-07T03:26:16.789Z,-1.67
2023-03-07T03:28:44.817Z,-1.66
2023-03-07T03:31:16.927Z,-1.65
2023-03-07T03:33:45.518Z,-1.67
2023-03-07T03:36:16.744Z,-1.69
2023-03-07T03:38:46.360Z,-1.73
2023-03-07T03:41:18.588Z,-1.76
2023-03-07T03:43:48.263Z,-1.79
2023-03-07T03:46:20.525Z,-1.76
2023-03-07T03:48:53.552Z,-1.78
2023-03-07T03:51:23.587Z,-1.81
2023-03-07T03:53:54.858Z,-1.85
2023-03-07T03:56:24.554Z,-1.86
2023-03-07T03:58:56.003Z,-1.88
2023-03-07T04:01:26.431Z,-1.88
2023-03-07T04:03:55.230Z,-1.85
2023-03-07T04:06:26.892Z,-1.83
2023-03-07T04:08:55.554Z,-1.83
2023-03-07T04:11:24.681Z,-1.81
2023-03-07T04:13:53.564Z,-1.82
2023-03-07T04:16:22.961Z,-1.80
2023-03-07T04:18:52.504Z,-1.81
2023-03-07T04:21:21.433Z,-1.82
2023-03-07T04:23:50.653Z,-1.84
2023-03-07T04:26:19.008Z,-1.86
2023-03-07T04:28:47.173Z,-1.88
2023-03-07T04:31:22.908Z,-1.91
2023-03-07T04:33:52.544Z,-1.94
2023-03-07T04:36:21.631Z,-1.96
2023-03-07T04:38:50.802Z,-2.00
2023-03-07T04:41:23.302Z,-2.02
2023-03-07T04:43:55.168Z,-2.07
2023-03-07T04:46:25.291Z,-2.08
2023-03-07T04:48:53.365Z,-2.10
2023-03-07T04:51:22.961Z,-2.12
2023-03-07T04:53:51.389Z,-2.15
2023-03-07T04:56:19.425Z,-2.14
2023-03-07T04:58:48.414Z,-2.16
2023-03-07T05:01:18.786Z,-2.18
2023-03-07T05:03:47.497Z,-2.22
2023-03-07T05:06:17.207Z,-2.23
2023-03-07T05:08:49.995Z,-2.23
2023-03-07T05:11:19.090Z,-2.26
2023-03-07T05:13:47.168Z,-2.26
2023-03-07T05:16:18.747Z,-2.23
2023-03-07T05:18:47.454Z,-2.19
2023-03-07T05:21:16.288Z,-2.15
2023-03-07T05:23:44.459Z,-2.12
2023-03-07T05:26:13.761Z,-2.11
2023-03-07T05:28:42.148Z,-2.10
2023-03-07T05:31:10.376Z,-2.08
2023-03-07T05:33:42.894Z,-2.09
2023-03-07T05:36:11.570Z,-2.09
2023-03-07T05:38:39.857Z,-2.09
2023-03-07T05:41:07.913Z,-2.05
2023-03-07T05:43:36.408Z,-2.03
2023-03-07T05:46:04.765Z,-2.01
2023-03-07T05:48:32.959Z,-2.00
2023-03-07T05:51:01.420Z,-1.97
2023-03-07T05:53:30.008Z,-1.93
2023-03-07T05:55:58.488Z,-1.87
2023-03-07T05:58:26.742Z,-1.84
2023-03-07T06:00:54.821Z,-1.79
2023-03-07T06:03:23.375Z,-1.75
2023-03-07T06:05:51.502Z,-1.71
2023-03-07T06:08:19.604Z,-1.69
2023-03-07T06:10:52.538Z,-1.62
2023-03-07T06:13:23.383Z,-1.55
2023-03-07T06:15:53.645Z,-1.50
2023-03-07T06:18:23.718Z,-1.41
2023-03-07T06:21:00.902Z,-1.32
2023-03-07T06:23:32.862Z,-1.23
2023-03-07T06:26:02.180Z,-1.15
2023-03-07T06:28:32.898Z,-1.09
2023-03-07T06:31:07.774Z,-1.01
2023-03-07T06:33:35.773Z,-0.94
2023-03-07T06:36:08.828Z,-0.90
2023-03-07T06:38:37.210Z,-0.90
2023-03-07T06:41:06.277Z,-0.90
2023-03-07T06:43:35.000Z,-0.90
2023-03-07T06:46:04.242Z,-0.90
2023-03-07T06:48:35.377Z,-0.95
2023-03-07T06:51:09.214Z,-0.92
2023-03-07T06:53:37.974Z,-0.88
2023-03-07T06:56:06.854Z,-0.83
2023-03-07T06:58:35.345Z,-0.76
2023-03-07T07:01:03.741Z,-0.69
2023-03-07T07:03:32.226Z,-0.63
2023-03-07T07:06:00.270Z,-0.57
2023-03-07T07:08:28.335Z,-0.53
2023-03-07T07:10:59.606Z,-0.49
2023-03-07T07:13:28.160Z,-0.47
2023-03-07T07:15:56.440Z,-0.41
2023-03-07T07:18:25.323Z,-0.36
2023-03-07T07:20:55.863Z,-0.29
2023-03-07T07:23:26.591Z,-0.24
2023-03-07T07:25:54.863Z,-0.19
2023-03-07T07:28:23.446Z,-0.11
2023-03-07T07:30:51.822Z,0.01
2023-03-07T07:33:20.484Z,0.15
2023-03-07T07:35:50.352Z,0.30
2023-03-07T07:38:18.992Z,0.42
2023-03-07T07:40:47.085Z,0.54
2023-03-07T07:43:17.551Z,0.57
2023-03-07T07:46:05.295Z,0.57
2023-03-07T07:48:33.790Z,0.63
2023-03-07T07:51:03.458Z,0.65
2023-03-07T07:53:32.208Z,0.72
2023-03-07T07:56:00.494Z,0.73
2023-03-07T07:58:28.846Z,0.78
2023-03-07T08:00:57.139Z,0.88
2023-03-07T08:03:25.174Z,0.94
2023-03-07T08:05:53.587Z,0.97
2023-03-07T08:08:21.629Z,1.05
2023-03-07T08:10:50.041Z,1.15
2023-03-07T08:13:18.335Z,1.25
2023-03-07T08:15:46.432Z,1.35
2023-03-07T08:18:14.861Z,1.40
2023-03-07T08:20:42.887Z,1.40
2023-03-07T08:23:10.906Z,1.44
2023-03-07T08:25:38.973Z,1.44
2023-03-07T08:28:07.251Z,1.44
2023-03-07T08:30:36.351Z,1.44
2023-03-07T08:33:04.630Z,1.41
2023-03-07T08:35:32.833Z,1.42
2023-03-07T08:38:01.359Z,1.46
2023-03-07T08:40:30.853Z,1.54
2023-03-07T08:42:59.812Z,1.54
2023-03-07T08:45:28.041Z,1.58
2023-03-07T08:47:56.827Z,1.66
2023-03-07T08:50:27.994Z,1.73
2023-03-07T08:52:57.774Z,1.79
2023-03-07T08:55:25.953Z,1.84
2023-03-07T08:57:54.023Z,1.92
2023-03-07T09:00:22.439Z,1.97
2023-03-07T09:02:50.518Z,2.05
2023-03-07T09:05:18.553Z,2.16
2023-03-07T09:07:46.610Z,2.29
2023-03-07T09:10:14.795Z,2.40
2023-03-07T09:12:43.361Z,2.44
2023-03-07T09:15:11.741Z,2.42
2023-03-07T09:17:39.820Z,2.42
2023-03-07T09:20:08.945Z,2.39
2023-03-07T09:22:36.975Z,2.32
2023-03-07T09:25:05.767Z,2.24
2023-03-07T09:27:33.943Z,2.13
2023-03-07T09:30:02.422Z,2.07
2023-03-07T09:32:33.444Z,2.05
2023-03-07T09:35:01.531Z,2.02
2023-03-07T09:37:29.598Z,2.01
2023-03-07T09:39:57.773Z,2.02
2023-03-07T09:43:08.961Z,1.99
2023-03-07T09:45:49.536Z,1.91
2023-03-07T09:48:36.124Z,1.86
2023-03-07T09:51:36.763Z,1.80
2023-03-07T09:54:15.265Z,1.74
2023-03-07T09:56:48.878Z,1.69
2023-03-07T09:59:35.479Z,1.66
2023-03-07T10:02:27.827Z,1.65
2023-03-07T10:05:08.503Z,1.64
2023-03-07T10:07:37.171Z,1.64
2023-03-07T10:10:11.167Z,1.68
2023-03-07T10:13:03.204Z,1.68
2023-03-07T10:15:53.179Z,1.71
2023-03-07T10:18:46.232Z,1.75
2023-03-07T10:21:28.482Z,1.77
2023-03-07T10:24:14.607Z,1.76
2023-03-07T10:26:50.730Z,1.83
2023-03-07T10:29:22.536Z,1.84
2023-03-07T10:32:19.625Z,1.87
2023-03-07T10:34:54.030Z,1.87
2023-03-07T10:37:30.500Z,1.89
2023-03-07T10:40:03.886Z,1.90
2023-03-07T10:42:37.127Z,1.88
2023-03-07T10:45:05.863Z,1.84
2023-03-07T10:47:34.150Z,1.81
2023-03-07T10:50:14.423Z,1.75
2023-03-07T10:53:04.778Z,1.71
2023-03-07T10:55:38.014Z,1.64
2023-03-07T10:58:17.615Z,1.69
2023-03-07T11:01:07.224Z,1.66
2023-03-07T11:03:56.867Z,1.57
2023-03-07T11:06:39.682Z,1.50
2023-03-07T11:09:17.062Z,1.41
2023-03-07T11:11:59.790Z,1.31
2023-03-07T11:14:29.448Z,1.24
2023-03-07T11:17:00.185Z,1.15
2023-03-07T11:19:36.876Z,1.13
2023-03-07T11:22:21.042Z,1.05
2023-03-07T11:25:10.677Z,0.99
2023-03-07T11:27:54.554Z,0.91
2023-03-07T11:30:34.399Z,0.86
2023-03-07T11:33:24.566Z,0.81
2023-03-07T11:36:04.615Z,0.77
2023-03-07T11:38:41.375Z,0.78
2023-03-07T11:41:16.949Z,0.77
2023-03-07T11:44:03.614Z,0.74
2023-03-07T11:46:39.043Z,0.72
2023-03-07T11:49:26.040Z,0.72
2023-03-07T11:52:36.095Z,0.71
2023-03-07T11:55:19.352Z,0.66
2023-03-07T11:58:11.761Z,0.68
2023-03-07T12:01:14.200Z,0.70
2023-03-07T12:04:03.500Z,0.70
2023-03-07T12:06:56.081Z,0.77
2023-03-07T12:10:02.507Z,0.82
2023-03-07T12:12:33.362Z,0.83
2023-03-07T12:15:19.863Z,0.87
2023-03-07T12:17:59.797Z,0.90
2023-03-07T12:20:33.608Z,0.93
2023-03-07T12:23:07.574Z,0.97
2023-03-07T12:25:42.577Z,1.07
2023-03-07T12:28:19.447Z,1.14
2023-03-07T12:31:06.034Z,1.20
2023-03-07T12:33:54.223Z,1.26
2023-03-07T12:36:28.506Z,1.35
2023-03-07T12:39:02.533Z,1.46
2023-03-07T12:41:40.493Z,1.53
2023-03-07T12:44:18.117Z,1.60
2023-03-07T12:47:03.984Z,1.64
2023-03-07T12:49:49.979Z,1.68
2023-03-07T12:52:25.267Z,1.71
2023-03-07T12:55:20.828Z,1.75
2023-03-07T12:58:15.587Z,1.79
2023-03-07T13:00:51.789Z,1.82
2023-03-07T13:03:40.961Z,1.86
2023-03-07T13:06:18.962Z,1.92
2023-03-07T13:08:50.067Z,1.97
2023-03-07T13:11:24.098Z,2.00
2023-03-07T13:14:06.007Z,2.03
2023-03-07T13:16:39.686Z,2.10
2023-03-07T13:19:35.413Z,2.16
2023-03-07T13:22:23.359Z,2.19
2023-03-07T13:24:56.001Z,2.24
2023-03-07T13:27:45.602Z,2.30
2023-03-07T13:30:13.758Z,2.32
2023-03-07T13:32:56.586Z,2.36
2023-03-07T13:35:24.681Z,2.44
2023-03-07T13:38:05.540Z,2.53
2023-03-07T13:40:37.011Z,2.63
2023-03-07T13:43:28.310Z,2.72
2023-03-07T13:45:57.556Z,2.82
2023-03-07T13:48:28.706Z,2.90
2023-03-07T13:50:59.406Z,2.98
2023-03-07T13:53:33.534Z,3.05
2023-03-07T13:56:16.740Z,3.10
2023-03-07T13:59:10.182Z,3.16
2023-03-07T14:01:58.755Z,3.21
2023-03-07T14:04:56.071Z,3.26
2023-03-07T14:07:26.812Z,3.29
2023-03-07T14:10:23.779Z,3.36
2023-03-07T14:13:05.666Z,3.40
2023-03-07T14:16:07.230Z,3.51
2023-03-07T14:18:51.562Z,3.62
2023-03-07T14:21:48.473Z,3.71
2023-03-07T14:24:46.435Z,3.78
2023-03-07T14:27:16.854Z,3.85
2023-03-07T14:29:53.459Z,3.93
2023-03-07T14:32:25.286Z,4.02
2023-03-07T14:34:53.654Z,4.11
2023-03-07T14:37:28.042Z,4.20
2023-03-07T14:39:59.277Z,4.26
2023-03-07T14:43:01.153Z,4.30
2023-03-07T14:45:46.347Z,4.30
2023-03-07T14:48:14.343Z,4.31
2023-03-07T14:50:44.639Z,4.29
2023-03-07T14:53:30.992Z,4.29
2023-03-07T14:56:00.481Z,4.28
2023-03-07T14:58:32.441Z,4.28
2023-03-07T15:01:06.930Z,4.27
2023-03-07T15:03:35.000Z,4.30
2023-03-07T15:06:03.680Z,4.34
2023-03-07T15:08:35.362Z,4.39
2023-03-07T15:11:22.741Z,4.40
2023-03-07T15:13:57.222Z,4.34
2023-03-07T15:16:34.524Z,4.32
2023-03-07T15:19:15.194Z,4.27
2023-03-07T15:21:51.242Z,4.24
2023-03-07T15:24:33.171Z,4.25
2023-03-07T15:27:02.062Z,4.21
2023-03-07T15:29:32.948Z,4.21
2023-03-07T15:32:04.152Z,4.23
2023-03-07T15:34:34.966Z,4.24
2023-03-07T15:37:22.452Z,4.26
2023-03-07T15:40:01.209Z,4.26
2023-03-07T15:42:29.886Z,4.26
2023-03-07T15:45:01.038Z,4.26
2023-03-07T15:47:32.172Z,4.28
2023-03-07T15:50:05.060Z,4.30
2023-03-07T15:52:38.461Z,4.30
2023-03-07T15:55:17.495Z,4.30
2023-03-07T15:57:54.744Z,4.30
2023-03-07T16:00:38.000Z,4.31
2023-03-07T16:03:28.080Z,4.27
2023-03-07T16:05:58.861Z,4.25
2023-03-07T16:08:27.748Z,4.26
2023-03-07T16:11:07.708Z,4.31
2023-03-07T16:13:43.901Z,4.30
2023-03-07T16:16:23.399Z,4.29
2023-03-07T16:18:53.771Z,4.27
2023-03-07T16:21:22.755Z,4.28
2023-03-07T16:23:51.100Z,4.30
2023-03-07T16:26:22.173Z,4.24
2023-03-07T16:28:51.981Z,4.25
2023-03-07T16:31:21.275Z,4.28
2023-03-07T16:33:49.587Z,4.30
2023-03-07T16:36:19.056Z,4.32
2023-03-07T16:38:47.141Z,4.32
2023-03-07T16:41:20.824Z,4.30
2023-03-07T16:43:55.319Z,4.28
2023-03-07T16:46:24.533Z,4.28
2023-03-07T16:48:52.633Z,4.28
2023-03-07T16:51:22.545Z,4.32
2023-03-07T16:53:51.267Z,4.34
2023-03-07T16:56:24.246Z,4.34
2023-03-07T16:58:53.268Z,4.33
2023-03-07T17:01:21.316Z,4.34
2023-03-07T17:03:49.455Z,4.34
2023-03-07T17:06:18.304Z,4.34
2023-03-07T17:08:47.196Z,4.35
2023-03-07T17:11:21.787Z,4.34
2023-03-07T17:13:52.797Z,4.31
2023-03-07T17:16:21.588Z,4.32
2023-03-07T17:18:49.764Z,4.33
2023-03-07T17:21:21.351Z,4.33
2023-03-07T17:23:49.907Z,4.28
2023-03-07T17:26:39.244Z,4.28
2023-03-07T17:29:13.400Z,4.27
2023-03-07T17:31:42.348Z,4.23
2023-03-07T17:34:31.312Z,4.20
2023-03-07T17:37:00.602Z,4.17
2023-03-07T17:39:30.019Z,4.17
2023-03-07T17:41:59.158Z,4.18
2023-03-07T17:44:28.289Z,4.17
2023-03-07T17:46:56.799Z,4.13
2023-03-07T17:49:28.083Z,4.08
2023-03-07T17:51:56.071Z,4.05
2023-03-07T17:54:24.169Z,3.99
2023-03-07T17:56:52.264Z,3.94
2023-03-07T17:59:20.302Z,3.88
2023-03-07T18:01:48.511Z,3.83
2023-03-07T18:04:16.596Z,3.76
2023-03-07T18:06:44.553Z,3.71
2023-03-07T18:09:13.615Z,3.66
2023-03-07T18:11:41.683Z,3.60
2023-03-07T18:14:10.262Z,3.55
2023-03-07T18:16:38.326Z,3.52
2023-03-07T18:19:08.346Z,3.47
2023-03-07T18:21:40.126Z,3.42
2023-03-07T18:24:26.622Z,3.38
2023-03-07T18:26:55.854Z,3.33
2023-03-07T18:29:24.099Z,3.30
2023-03-07T18:31:52.294Z,3.27
2023-03-07T18:34:21.054Z,3.22
2023-03-07T18:36:51.870Z,3.14
2023-03-07T18:39:24.057Z,3.05
2023-03-07T18:41:52.289Z,3.01
2023-03-07T18:44:20.792Z,3.00
2023-03-07T18:46:48.798Z,2.98
2023-03-07T18:49:16.831Z,2.97
2023-03-07T18:51:46.138Z,2.97
2023-03-07T18:54:14.649Z,2.98
2023-03-07T18:56:46.444Z,2.99
2023-03-07T18:59:15.041Z,2.98
2023-03-07T19:01:43.745Z,2.96
2023-03-07T19:04:11.905Z,2.95
2023-03-07T19:06:42.160Z,2.95
2023-03-07T19:09:19.692Z,2.97
2023-03-07T19:11:48.421Z,2.96
2023-03-07T19:14:16.545Z,2.95
2023-03-07T19:16:44.951Z,2.95
2023-03-07T19:19:13.144Z,2.95
2023-03-07T19:21:41.204Z,2.95
2023-03-07T19:24:11.925Z,2.96
2023-03-07T19:26:41.188Z,2.97
2023-03-07T19:29:11.251Z,2.98
2023-03-07T19:31:41.038Z,2.97
2023-03-07T19:34:09.656Z,2.95
2023-03-07T19:36:39.227Z,2.92
2023-03-07T19:39:15.130Z,2.89
2023-03-07T19:41:45.491Z,2.86
2023-03-07T19:44:14.632Z,2.84
2023-03-07T19:46:46.459Z,2.84
2023-03-07T19:49:17.783Z,2.85
2023-03-07T19:51:46.172Z,2.86
2023-03-07T19:54:15.338Z,2.86
2023-03-07T19:56:45.125Z,2.85
2023-03-07T19:59:14.068Z,2.84
2023-03-07T20:01:42.322Z,2.85
2023-03-07T20:04:13.724Z,2.84
2023-03-07T20:06:43.639Z,2.85
2023-03-07T20:09:13.317Z,2.86
2023-03-07T20:11:43.390Z,2.88
2023-03-07T20:14:12.489Z,2.90
2023-03-07T20:16:41.051Z,2.90
2023-03-07T20:19:09.823Z,2.89
2023-03-07T20:21:38.321Z,2.90
2023-03-07T20:24:08.136Z,2.90
2023-03-07T20:26:38.725Z,2.91
2023-03-07T20:29:08.646Z,2.85
2023-03-07T20:31:37.356Z,2.82
2023-03-07T20:34:06.134Z,2.79
2023-03-07T20:36:36.020Z,2.79
2023-03-07T20:39:09.653Z,2.79
2023-03-07T20:41:37.718Z,2.75
2023-03-07T20:44:07.373Z,2.71
2023-03-07T20:46:35.989Z,2.66
2023-03-07T20:49:04.718Z,2.64
2023-03-07T20:51:35.206Z,2.62
2023-03-07T20:54:10.559Z,2.59
2023-03-07T20:56:39.690Z,2.55
2023-03-07T20:59:09.383Z,2.52
2023-03-07T21:01:37.528Z,2.48
2023-03-07T21:04:12.473Z,2.43
2023-03-07T21:06:43.620Z,2.41
2023-03-07T21:09:13.441Z,2.39
2023-03-07T21:11:46.511Z,2.37
2023-03-07T21:14:15.921Z,2.34
2023-03-07T21:16:43.989Z,2.31
2023-03-07T21:19:12.864Z,2.33
2023-03-07T21:21:42.247Z,2.32
2023-03-07T21:24:12.476Z,2.29
2023-03-07T21:26:40.517Z,2.24
2023-03-07T21:29:09.118Z,2.20
2023-03-07T21:31:37.645Z,2.17
2023-03-07T21:34:08.479Z,2.16
2023-03-07T21:36:36.540Z,2.15
2023-03-07T21:39:08.024Z,2.17
2023-03-07T21:41:36.645Z,2.13
2023-03-07T21:44:04.855Z,2.11
2023-03-07T21:46:32.964Z,2.09
2023-03-07T21:49:01.716Z,2.07
2023-03-07T21:51:29.854Z,2.03
2023-03-07T21:53:58.110Z,2.00
2023-03-07T21:56:26.414Z,1.98
2023-03-07T21:58:54.524Z,1.95
2023-03-07T22:01:25.954Z,1.94
2023-03-07T22:03:56.187Z,1.92
2023-03-07T22:06:25.187Z,1.90
2023-03-07T22:08:53.637Z,1.93
2023-03-07T22:11:21.913Z,1.93
2023-03-07T22:13:50.169Z,1.90
2023-03-07T22:16:23.434Z,1.88
2023-03-07T22:18:57.715Z,1.87
2023-03-07T22:21:26.855Z,1.87
2023-03-07T22:24:01.244Z,1.87
2023-03-07T22:26:31.137Z,1.85
2023-03-07T22:28:59.749Z,1.85
2023-03-07T22:31:28.045Z,1.84
2023-03-07T22:33:58.734Z,1.83
2023-03-07T22:36:26.985Z,1.83
2023-03-07T22:38:56.221Z,1.82
2023-03-07T22:41:24.920Z,1.84
2023-03-07T22:43:53.283Z,1.84
2023-03-07T22:46:22.031Z,1.84
2023-03-07T22:48:57.422Z,1.82
2023-03-07T22:51:26.205Z,1.79
2023-03-07T22:53:54.862Z,1.78
2023-03-07T22:56:25.854Z,1.77
2023-03-07T22:58:54.029Z,1.76
2023-03-07T23:01:25.413Z,1.77
2023-03-07T23:03:55.073Z,1.75
2023-03-07T23:06:26.054Z,1.74
2023-03-07T23:08:55.010Z,1.73
2023-03-07T23:11:25.091Z,1.71
2023-03-07T23:13:54.414Z,1.70
2023-03-07T23:16:25.372Z,1.68
2023-03-07T23:18:55.999Z,1.63
2023-03-07T23:21:27.067Z,1.59
2023-03-07T23:23:56.266Z,1.54
2023-03-07T23:26:37.004Z,1.53
2023-03-07T23:29:06.956Z,1.52
2023-03-07T23:31:37.800Z,1.50
2023-03-07T23:34:15.368Z,1.51
2023-03-07T23:36:44.054Z,1.46
2023-03-07T23:39:12.476Z,1.42
2023-03-07T23:41:40.439Z,1.40
2023-03-07T23:44:08.426Z,1.41
2023-03-07T23:46:36.494Z,1.39
2023-03-07T23:49:04.712Z,1.37
2023-03-07T23:51:32.777Z,1.35
2023-03-07T23:54:00.863Z,1.36
2023-03-07T23:56:28.927Z,1.36
2023-03-07T23:58:57.102Z,1.33
